sensor_id;sensor_type;location;lat;lon;timestamp;pressure;altitude;pressure_sealevel;temperature;humidity
75418;BME280;63997;52.112;5.420;2022-12-22T00:00:21;100573.44;;;8.33;97.38
75418;BME280;63997;52.112;5.420;2022-12-22T00:03:12;100560.19;;;8.33;97.30
75418;BME280;63997;52.112;5.420;2022-12-22T00:05:57;100555.66;;;8.33;97.23
75418;BME280;63997;52.112;5.420;2022-12-22T00:08:42;100551.91;;;8.34;97.42
75418;BME280;63997;52.112;5.420;2022-12-22T00:11:31;100551.13;;;8.34;97.28
75418;BME280;63997;52.112;5.420;2022-12-22T00:14:16;100553.78;;;8.34;97.36
75418;BME280;63997;52.112;5.420;2022-12-22T00:17:01;100549.25;;;8.34;97.40
75418;BME280;63997;52.112;5.420;2022-12-22T00:19:46;100551.91;;;8.34;97.32
75418;BME280;63997;52.112;5.420;2022-12-22T00:22:31;100540.53;;;8.34;97.27
75418;BME280;63997;52.112;5.420;2022-12-22T00:25:16;100542.09;;;8.35;97.38
75418;BME280;63997;52.112;5.420;2022-12-22T00:28:09;100529.94;;;8.34;97.39
75418;BME280;63997;52.112;5.420;2022-12-22T00:30:55;100541.31;;;8.34;97.51
75418;BME280;63997;52.112;5.420;2022-12-22T00:33:41;100548.97;;;8.36;97.45
75418;BME280;63997;52.112;5.420;2022-12-22T00:36:27;100529.38;;;8.37;97.36
75418;BME280;63997;52.112;5.420;2022-12-22T00:39:12;100518.75;;;8.37;97.43
75418;BME280;63997;52.112;5.420;2022-12-22T00:41:58;100518.44;;;8.38;97.38
75418;BME280;63997;52.112;5.420;2022-12-22T00:44:42;100516.88;;;8.37;97.38
75418;BME280;63997;52.112;5.420;2022-12-22T00:47:29;100501.78;;;8.38;97.41
75418;BME280;63997;52.112;5.420;2022-12-22T00:50:15;100506.28;;;8.37;97.44
75418;BME280;63997;52.112;5.420;2022-12-22T00:53:00;100504.41;;;8.38;97.34
75418;BME280;63997;52.112;5.420;2022-12-22T00:55:46;100502.53;;;8.38;97.32
75418;BME280;63997;52.112;5.420;2022-12-22T00:58:31;100503.31;;;8.39;97.39
75418;BME280;63997;52.112;5.420;2022-12-22T01:01:16;100497.72;;;8.40;97.51
75418;BME280;63997;52.112;5.420;2022-12-22T01:04:01;100501.91;;;8.41;97.37
75418;BME280;63997;52.112;5.420;2022-12-22T01:06:47;100499.25;;;8.41;97.64
75418;BME280;63997;52.112;5.420;2022-12-22T01:09:32;100494.75;;;8.42;97.44
75418;BME280;63997;52.112;5.420;2022-12-22T01:12:20;100498.66;;;8.44;97.40
75418;BME280;63997;52.112;5.420;2022-12-22T01:15:15;100486.50;;;8.43;97.54
75418;BME280;63997;52.112;5.420;2022-12-22T01:18:01;100475.13;;;8.43;97.53
75418;BME280;63997;52.112;5.420;2022-12-22T01:20:46;100471.38;;;8.44;97.51
75418;BME280;63997;52.112;5.420;2022-12-22T01:23:31;100471.38;;;8.44;97.44
75418;BME280;63997;52.112;5.420;2022-12-22T01:26:16;100476.34;;;8.45;97.51
75418;BME280;63997;52.112;5.420;2022-12-22T01:29:01;100471.81;;;8.46;97.40
75418;BME280;63997;52.112;5.420;2022-12-22T01:31:46;100468.41;;;8.45;97.52
75418;BME280;63997;52.112;5.420;2022-12-22T01:34:31;100469.66;;;8.48;97.59
75418;BME280;63997;52.112;5.420;2022-12-22T01:37:15;100468.88;;;8.47;97.58
75418;BME280;63997;52.112;5.420;2022-12-22T01:40:00;100468.06;;;8.47;97.65
75418;BME280;63997;52.112;5.420;2022-12-22T01:42:45;100472.31;;;8.48;97.58
75418;BME280;63997;52.112;5.420;2022-12-22T01:45:35;100473.09;;;8.48;97.65
75418;BME280;63997;52.112;5.420;2022-12-22T01:48:25;100465.44;;;8.47;97.67
75418;BME280;63997;52.112;5.420;2022-12-22T01:51:15;100469.66;;;8.48;97.57
75418;BME280;63997;52.112;5.420;2022-12-22T01:54:01;100456.41;;;8.48;97.71
75418;BME280;63997;52.112;5.420;2022-12-22T01:56:48;100457.19;;;8.48;97.69
75418;BME280;63997;52.112;5.420;2022-12-22T01:59:34;100446.59;;;8.48;97.52
75418;BME280;63997;52.112;5.420;2022-12-22T02:02:20;100448.13;;;8.50;97.55
75418;BME280;63997;52.112;5.420;2022-12-22T02:05:08;100446.25;;;8.50;97.77
75418;BME280;63997;52.112;5.420;2022-12-22T02:11:18;100442.53;;;8.51;97.63
75418;BME280;63997;52.112;5.420;2022-12-22T02:14:41;100443.28;;;8.52;97.65
75418;BME280;63997;52.112;5.420;2022-12-22T02:17:39;100434.25;;;8.53;97.69
75418;BME280;63997;52.112;5.420;2022-12-22T02:20:30;100427.09;;;8.53;97.63
75418;BME280;63997;52.112;5.420;2022-12-22T02:26:40;100428.16;;;8.52;97.69
75418;BME280;63997;52.112;5.420;2022-12-22T02:29:36;100420.22;;;8.52;97.47
75418;BME280;63997;52.112;5.420;2022-12-22T02:32:23;100416.00;;;8.51;97.75
75418;BME280;63997;52.112;5.420;2022-12-22T02:35:13;100414.13;;;8.52;97.45
75418;BME280;63997;52.112;5.420;2022-12-22T02:38:13;100416.00;;;8.51;97.65
75418;BME280;63997;52.112;5.420;2022-12-22T02:41:33;100408.06;;;8.51;97.49
75418;BME280;63997;52.112;5.420;2022-12-22T02:48:03;100399.34;;;8.51;97.49
75418;BME280;63997;52.112;5.420;2022-12-22T02:51:13;100402.00;;;8.51;97.61
75418;BME280;63997;52.112;5.420;2022-12-22T02:54:01;100411.81;;;8.50;97.56
75418;BME280;63997;52.112;5.420;2022-12-22T02:56:47;100398.88;;;8.48;97.61
75418;BME280;63997;52.112;5.420;2022-12-22T02:59:32;100394.38;;;8.49;97.46
75418;BME280;63997;52.112;5.420;2022-12-22T03:02:17;100390.16;;;8.48;97.51
75418;BME280;63997;52.112;5.420;2022-12-22T03:05:02;100382.22;;;8.48;97.65
75418;BME280;63997;52.112;5.420;2022-12-22T03:07:48;100383.28;;;8.47;97.65
75418;BME280;63997;52.112;5.420;2022-12-22T03:10:34;100382.22;;;8.48;97.69
75418;BME280;63997;52.112;5.420;2022-12-22T03:13:20;100389.06;;;8.49;97.57
75418;BME280;63997;52.112;5.420;2022-12-22T03:16:05;100383.75;;;8.49;97.66
75418;BME280;63997;52.112;5.420;2022-12-22T03:18:50;100382.97;;;8.48;97.80
75418;BME280;63997;52.112;5.420;2022-12-22T03:21:34;100369.75;;;8.48;97.65
75418;BME280;63997;52.112;5.420;2022-12-22T03:24:19;100367.88;;;8.49;97.56
75418;BME280;63997;52.112;5.420;2022-12-22T03:27:04;100364.13;;;8.50;97.76
75418;BME280;63997;52.112;5.420;2022-12-22T03:29:31;100361.78;;;8.48;97.79
75418;BME280;63997;52.112;5.420;2022-12-22T03:31:57;100350.84;;;8.50;97.75
75418;BME280;63997;52.112;5.420;2022-12-22T03:34:24;100355.38;;;8.50;97.84
75418;BME280;63997;52.112;5.420;2022-12-22T03:36:50;100348.22;;;8.50;97.55
75418;BME280;63997;52.112;5.420;2022-12-22T03:39:16;100354.59;;;8.49;97.63
75418;BME280;63997;52.112;5.420;2022-12-22T03:41:43;100348.22;;;8.50;97.79
75418;BME280;63997;52.112;5.420;2022-12-22T03:44:27;100355.06;;;8.51;97.63
75418;BME280;63997;52.112;5.420;2022-12-22T03:47:12;100350.53;;;8.52;97.67
75418;BME280;63997;52.112;5.420;2022-12-22T03:49:39;100351.31;;;8.52;97.62
75418;BME280;63997;52.112;5.420;2022-12-22T03:52:05;100347.88;;;8.52;97.77
75418;BME280;63997;52.112;5.420;2022-12-22T03:54:32;100344.47;;;8.51;97.65
75418;BME280;63997;52.112;5.420;2022-12-22T03:56:58;100341.81;;;8.51;97.73
75418;BME280;63997;52.112;5.420;2022-12-22T03:59:24;100345.25;;;8.52;97.61
75418;BME280;63997;52.112;5.420;2022-12-22T04:01:52;100339.16;;;8.51;97.61
75418;BME280;63997;52.112;5.420;2022-12-22T04:04:22;100339.16;;;8.51;97.59
75418;BME280;63997;52.112;5.420;2022-12-22T04:06:48;100345.25;;;8.52;97.71
75418;BME280;63997;52.112;5.420;2022-12-22T04:09:15;100337.00;;;8.53;97.71
75418;BME280;63997;52.112;5.420;2022-12-22T04:11:41;100338.06;;;8.52;97.78
75418;BME280;63997;52.112;5.420;2022-12-22T04:14:26;100342.28;;;8.53;97.62
75418;BME280;63997;52.112;5.420;2022-12-22T04:17:01;100339.94;;;8.52;97.64
75418;BME280;63997;52.112;5.420;2022-12-22T04:19:27;100343.38;;;8.52;97.66
75418;BME280;63997;52.112;5.420;2022-12-22T04:21:53;100337.59;;;8.50;97.53
75418;BME280;63997;52.112;5.420;2022-12-22T04:24:20;100338.38;;;8.51;97.43
75418;BME280;63997;52.112;5.420;2022-12-22T04:26:47;100336.06;;;8.49;97.62
75418;BME280;63997;52.112;5.420;2022-12-22T04:29:13;100351.97;;;8.49;97.52
75418;BME280;63997;52.112;5.420;2022-12-22T04:31:40;100344.00;;;8.49;97.48
75418;BME280;63997;52.112;5.420;2022-12-22T04:34:07;100355.38;;;8.50;97.55
75418;BME280;63997;52.112;5.420;2022-12-22T04:36:35;100345.88;;;8.48;97.33
75418;BME280;63997;52.112;5.420;2022-12-22T04:39:02;100357.59;;;8.47;97.66
75418;BME280;63997;52.112;5.420;2022-12-22T04:41:28;100360.22;;;8.47;97.48
75418;BME280;63997;52.112;5.420;2022-12-22T04:43:55;100359.13;;;8.48;97.53
75418;BME280;63997;52.112;5.420;2022-12-22T04:46:21;100367.09;;;8.48;97.59
75418;BME280;63997;52.112;5.420;2022-12-22T04:48:47;100365.84;;;8.46;97.36
75418;BME280;63997;52.112;5.420;2022-12-22T04:51:19;100368.03;;;8.44;97.58
75418;BME280;63997;52.112;5.420;2022-12-22T04:53:47;100365.06;;;8.45;97.47
75418;BME280;63997;52.112;5.420;2022-12-22T04:56:16;100368.47;;;8.46;97.56
75418;BME280;63997;52.112;5.420;2022-12-22T04:58:42;100361.00;;;8.48;97.32
75418;BME280;63997;52.112;5.420;2022-12-22T05:01:12;100356.31;;;8.45;97.59
75418;BME280;63997;52.112;5.420;2022-12-22T05:03:38;100358.97;;;8.45;97.49
75418;BME280;63997;52.112;5.420;2022-12-22T05:06:05;100362.72;;;8.44;97.37
75418;BME280;63997;52.112;5.420;2022-12-22T05:08:33;100358.97;;;8.45;97.35
75418;BME280;63997;52.112;5.420;2022-12-22T05:11:02;100363.50;;;8.44;97.35
75418;BME280;63997;52.112;5.420;2022-12-22T05:13:29;100362.41;;;8.45;97.43
75418;BME280;63997;52.112;5.420;2022-12-22T05:16:08;100366.59;;;8.46;97.44
75418;BME280;63997;52.112;5.420;2022-12-22T05:18:36;100361.63;;;8.45;97.24
75418;BME280;63997;52.112;5.420;2022-12-22T05:21:05;100352.56;;;8.46;97.36
75418;BME280;63997;52.112;5.420;2022-12-22T05:23:32;100352.56;;;8.46;97.36
75418;BME280;63997;52.112;5.420;2022-12-22T05:25:59;100365.53;;;8.47;97.51
75418;BME280;63997;52.112;5.420;2022-12-22T05:28:25;100371.63;;;8.48;97.37
75418;BME280;63997;52.112;5.420;2022-12-22T05:30:52;100372.38;;;8.48;97.47
75418;BME280;63997;52.112;5.420;2022-12-22T05:33:19;100373.94;;;8.50;97.19
75418;BME280;63997;52.112;5.420;2022-12-22T05:35:45;100383.75;;;8.49;97.42
75418;BME280;63997;52.112;5.420;2022-12-22T05:38:11;100379.84;;;8.46;97.26
75418;BME280;63997;52.112;5.420;2022-12-22T05:40:38;100381.44;;;8.47;97.25
75418;BME280;63997;52.112;5.420;2022-12-22T05:43:04;100385.31;;;8.50;97.49
75418;BME280;63997;52.112;5.420;2022-12-22T05:45:31;100392.81;;;8.48;97.33
75418;BME280;63997;52.112;5.420;2022-12-22T05:47:58;100388.28;;;8.48;97.35
75418;BME280;63997;52.112;5.420;2022-12-22T05:50:24;100393.72;;;8.52;97.60
75418;BME280;63997;52.112;5.420;2022-12-22T05:52:51;100401.22;;;8.50;97.43
75418;BME280;63997;52.112;5.420;2022-12-22T05:55:17;100402.75;;;8.51;97.47
75418;BME280;63997;52.112;5.420;2022-12-22T05:57:43;100408.53;;;8.53;97.38
75418;BME280;63997;52.112;5.420;2022-12-22T06:00:13;100408.22;;;8.55;97.41
75418;BME280;63997;52.112;5.420;2022-12-22T06:02:42;100409.44;;;8.57;97.28
75418;BME280;63997;52.112;5.420;2022-12-22T06:05:12;100409.44;;;8.57;97.49
75418;BME280;63997;52.112;5.420;2022-12-22T06:07:40;100417.41;;;8.57;97.38
75418;BME280;63997;52.112;5.420;2022-12-22T06:10:07;100418.19;;;8.58;97.40
75418;BME280;63997;52.112;5.420;2022-12-22T06:12:38;100413.97;;;8.57;97.24
75418;BME280;63997;52.112;5.420;2022-12-22T06:15:06;100416.31;;;8.58;97.43
75418;BME280;63997;52.112;5.420;2022-12-22T06:17:32;100407.72;;;8.61;97.35
75418;BME280;63997;52.112;5.420;2022-12-22T06:20:08;100397.75;;;8.58;97.17
75418;BME280;63997;52.112;5.420;2022-12-22T06:22:35;100393.09;;;8.55;97.30
75418;BME280;63997;52.112;5.420;2022-12-22T06:25:01;100397.47;;;8.51;97.23
75418;BME280;63997;52.112;5.420;2022-12-22T06:27:28;100404.03;;;8.45;96.99
75418;BME280;63997;52.112;5.420;2022-12-22T06:29:54;100393.13;;;8.38;97.00
75418;BME280;63997;52.112;5.420;2022-12-22T06:32:20;100400.91;;;8.34;96.75
75418;BME280;63997;52.112;5.420;2022-12-22T06:34:46;100411.03;;;8.32;96.81
75418;BME280;63997;52.112;5.420;2022-12-22T06:37:13;100426.31;;;8.27;96.71
75418;BME280;63997;52.112;5.420;2022-12-22T06:39:39;100423.34;;;8.28;96.86
75418;BME280;63997;52.112;5.420;2022-12-22T06:42:07;100424.28;;;8.32;96.82
75418;BME280;63997;52.112;5.420;2022-12-22T06:44:53;100431.47;;;8.32;96.77
75418;BME280;63997;52.112;5.420;2022-12-22T06:47:20;100440.50;;;8.31;96.63
75418;BME280;63997;52.112;5.420;2022-12-22T06:49:47;100444.22;;;8.30;96.87
75418;BME280;63997;52.112;5.420;2022-12-22T06:52:13;100443.16;;;8.31;96.67
75418;BME280;63997;52.112;5.420;2022-12-22T06:54:39;100456.69;;;8.29;96.54
75418;BME280;63997;52.112;5.420;2022-12-22T06:57:06;100452.81;;;8.27;96.73
75418;BME280;63997;52.112;5.420;2022-12-22T06:59:32;100470.56;;;8.26;96.48
75418;BME280;63997;52.112;5.420;2022-12-22T07:01:58;100472.75;;;8.24;96.52
75418;BME280;63997;52.112;5.420;2022-12-22T07:04:25;100478.69;;;8.21;96.58
75418;BME280;63997;52.112;5.420;2022-12-22T07:06:51;100489.28;;;8.21;96.25
75418;BME280;63997;52.112;5.420;2022-12-22T07:09:18;100493.78;;;8.20;96.37
75418;BME280;63997;52.112;5.420;2022-12-22T07:11:45;100484.59;;;8.18;96.35
75418;BME280;63997;52.112;5.420;2022-12-22T07:14:11;100494.72;;;8.16;96.55
75418;BME280;63997;52.112;5.420;2022-12-22T07:16:37;100498.91;;;8.17;96.31
75418;BME280;63997;52.112;5.420;2022-12-22T07:19:04;100508.75;;;8.16;96.48
75418;BME280;63997;52.112;5.420;2022-12-22T07:21:33;100502.66;;;8.16;96.47
75418;BME280;63997;52.112;5.420;2022-12-22T07:23:59;100511.22;;;8.13;96.29
75418;BME280;63997;52.112;5.420;2022-12-22T07:26:25;100517.94;;;8.10;96.14
75418;BME280;63997;52.112;5.420;2022-12-22T07:28:52;100509.53;;;8.08;95.96
75418;BME280;63997;52.112;5.420;2022-12-22T07:31:18;100512.78;;;8.05;96.10
75418;BME280;63997;52.112;5.420;2022-12-22T07:33:44;100505.94;;;8.04;95.89
75418;BME280;63997;52.112;5.420;2022-12-22T07:36:16;100520.56;;;8.02;95.99
75418;BME280;63997;52.112;5.420;2022-12-22T07:38:45;100527.72;;;8.01;95.89
75418;BME280;63997;52.112;5.420;2022-12-22T07:41:13;100533.34;;;8.00;95.84
75418;BME280;63997;52.112;5.420;2022-12-22T07:43:59;100534.44;;;7.99;95.86
75418;BME280;63997;52.112;5.420;2022-12-22T07:46:29;100532.09;;;7.97;95.92
75418;BME280;63997;52.112;5.420;2022-12-22T07:48:57;100540.97;;;7.92;95.86
75418;BME280;63997;52.112;5.420;2022-12-22T07:51:42;100547.03;;;7.93;96.09
75418;BME280;63997;52.112;5.420;2022-12-22T07:54:11;100539.41;;;7.91;95.99
75418;BME280;63997;52.112;5.420;2022-12-22T07:56:38;100546.53;;;7.91;95.89
75418;BME280;63997;52.112;5.420;2022-12-22T07:59:06;100550.78;;;7.92;95.93
75418;BME280;63997;52.112;5.420;2022-12-22T08:01:34;100553.41;;;7.92;95.80
75418;BME280;63997;52.112;5.420;2022-12-22T08:04:01;100564.59;;;7.89;95.83
75418;BME280;63997;52.112;5.420;2022-12-22T08:06:28;100564.91;;;7.87;95.78
75418;BME280;63997;52.112;5.420;2022-12-22T08:08:54;100564.16;;;7.87;95.61
75418;BME280;63997;52.112;5.420;2022-12-22T08:11:21;100567.88;;;7.86;95.64
75418;BME280;63997;52.112;5.420;2022-12-22T08:13:47;100577.38;;;7.87;95.71
75418;BME280;63997;52.112;5.420;2022-12-22T08:16:15;100576.28;;;7.88;95.46
75418;BME280;63997;52.112;5.420;2022-12-22T08:18:42;100578.75;;;7.84;95.42
75418;BME280;63997;52.112;5.420;2022-12-22T08:21:09;100574.69;;;7.78;95.22
75418;BME280;63997;52.112;5.420;2022-12-22T08:23:36;100575.00;;;7.77;95.12
75418;BME280;63997;52.112;5.420;2022-12-22T08:26:08;100584.19;;;7.71;94.92
75418;BME280;63997;52.112;5.420;2022-12-22T08:28:43;100586.94;;;7.65;94.79
75418;BME280;63997;52.112;5.420;2022-12-22T08:31:12;100595.81;;;7.61;94.83
75418;BME280;63997;52.112;5.420;2022-12-22T08:33:39;100602.69;;;7.71;94.72
75418;BME280;63997;52.112;5.420;2022-12-22T08:36:06;100608.19;;;7.83;94.46
75418;BME280;63997;52.112;5.420;2022-12-22T08:38:35;100611.88;;;7.73;94.23
75418;BME280;63997;52.112;5.420;2022-12-22T08:41:02;100614.50;;;7.64;94.33
75418;BME280;63997;52.112;5.420;2022-12-22T08:43:30;100622.56;;;7.59;94.29
75418;BME280;63997;52.112;5.420;2022-12-22T08:45:58;100622.41;;;7.56;94.35
75418;BME280;63997;52.112;5.420;2022-12-22T08:48:24;100619.88;;;7.51;94.16
75418;BME280;63997;52.112;5.420;2022-12-22T08:50:50;100633.22;;;7.46;94.16
75418;BME280;63997;52.112;5.420;2022-12-22T08:53:17;100643.47;;;7.38;94.30
75418;BME280;63997;52.112;5.420;2022-12-22T08:56:03;100651.34;;;7.30;93.78
75418;BME280;63997;52.112;5.420;2022-12-22T08:58:30;100654.25;;;7.20;93.53
75418;BME280;63997;52.112;5.420;2022-12-22T09:00:57;100662.28;;;7.14;93.61
75418;BME280;63997;52.112;5.420;2022-12-22T09:03:24;100657.88;;;7.10;93.73
75418;BME280;63997;52.112;5.420;2022-12-22T09:05:51;100655.06;;;7.06;93.58
75418;BME280;63997;52.112;5.420;2022-12-22T09:08:17;100659.88;;;7.04;93.65
75418;BME280;63997;52.112;5.420;2022-12-22T09:10:44;100655.13;;;7.15;93.53
75418;BME280;63997;52.112;5.420;2022-12-22T09:13:11;100655.19;;;7.24;93.32
75418;BME280;63997;52.112;5.420;2022-12-22T09:15:37;100673.31;;;7.30;93.39
75418;BME280;63997;52.112;5.420;2022-12-22T09:18:04;100673.00;;;7.32;93.32
75418;BME280;63997;52.112;5.420;2022-12-22T09:20:31;100680.31;;;7.35;93.55
75418;BME280;63997;52.112;5.420;2022-12-22T09:22:58;100678.69;;;7.48;93.89
75418;BME280;63997;52.112;5.420;2022-12-22T09:25:25;100686.44;;;7.66;93.92
75418;BME280;63997;52.112;5.420;2022-12-22T09:27:51;100694.78;;;7.82;93.86
75418;BME280;63997;52.112;5.420;2022-12-22T09:30:18;100692.25;;;7.77;93.63
75418;BME280;63997;52.112;5.420;2022-12-22T09:32:45;100700.38;;;7.81;93.85
75418;BME280;63997;52.112;5.420;2022-12-22T09:35:11;100700.59;;;7.93;94.00
75418;BME280;63997;52.112;5.420;2022-12-22T09:37:40;100711.41;;;8.05;93.70
75418;BME280;63997;52.112;5.420;2022-12-22T09:40:07;100697.41;;;8.13;93.81
75418;BME280;63997;52.112;5.420;2022-12-22T09:42:34;100682.00;;;8.15;93.51
75418;BME280;63997;52.112;5.420;2022-12-22T09:45:00;100688.06;;;8.16;93.25
75418;BME280;63997;52.112;5.420;2022-12-22T09:47:33;100695.44;;;8.28;93.41
75418;BME280;63997;52.112;5.420;2022-12-22T09:50:04;100695.31;;;8.33;93.50
75418;BME280;63997;52.112;5.420;2022-12-22T09:55:01;100711.66;;;8.35;93.38
75418;BME280;63997;52.112;5.420;2022-12-22T09:57:30;100716.31;;;8.20;93.00
75418;BME280;63997;52.112;5.420;2022-12-22T10:00:04;100709.44;;;8.19;93.16
75418;BME280;63997;52.112;5.420;2022-12-22T10:02:54;100722.03;;;8.14;93.17
75418;BME280;63997;52.112;5.420;2022-12-22T10:05:35;100712.69;;;8.16;93.03
75418;BME280;63997;52.112;5.420;2022-12-22T10:08:10;100714.75;;;8.19;92.88
75418;BME280;63997;52.112;5.420;2022-12-22T10:10:38;100721.09;;;8.18;92.96
75418;BME280;63997;52.112;5.420;2022-12-22T10:13:05;100724.38;;;8.15;93.10
75418;BME280;63997;52.112;5.420;2022-12-22T10:15:39;100721.69;;;8.07;93.05
75418;BME280;63997;52.112;5.420;2022-12-22T10:18:12;100727.28;;;8.05;93.25
75418;BME280;63997;52.112;5.420;2022-12-22T10:20:39;100729.34;;;8.08;93.20
75418;BME280;63997;52.112;5.420;2022-12-22T10:23:26;100721.25;;;8.13;93.30
75418;BME280;63997;52.112;5.420;2022-12-22T10:28:47;100723.88;;;8.13;93.53
75418;BME280;63997;52.112;5.420;2022-12-22T10:31:19;100708.97;;;8.17;93.36
75418;BME280;63997;52.112;5.420;2022-12-22T10:33:48;100710.69;;;8.22;93.51
75418;BME280;63997;52.112;5.420;2022-12-22T10:36:34;100721.47;;;8.26;93.71
75418;BME280;63997;52.112;5.420;2022-12-22T10:39:06;100723.50;;;8.29;93.50
75418;BME280;63997;52.112;5.420;2022-12-22T10:41:43;100720.97;;;8.23;93.53
75418;BME280;63997;52.112;5.420;2022-12-22T10:44:19;100723.38;;;8.34;93.27
75418;BME280;63997;52.112;5.420;2022-12-22T10:46:50;100732.75;;;8.40;93.25
75418;BME280;63997;52.112;5.420;2022-12-22T10:51:53;100732.50;;;8.50;93.41
75418;BME280;63997;52.112;5.420;2022-12-22T10:54:28;100737.94;;;8.45;93.12
75418;BME280;63997;52.112;5.420;2022-12-22T10:57:19;100738.38;;;8.47;93.06
75418;BME280;63997;52.112;5.420;2022-12-22T10:59:59;100738.84;;;8.40;92.88
75418;BME280;63997;52.112;5.420;2022-12-22T11:02:35;100733.38;;;8.37;92.80
75418;BME280;63997;52.112;5.420;2022-12-22T11:05:09;100739.47;;;8.46;93.15
75418;BME280;63997;52.112;5.420;2022-12-22T11:07:41;100738.88;;;8.49;92.99
75418;BME280;63997;52.112;5.420;2022-12-22T11:13:15;100740.63;;;8.54;93.09
75418;BME280;63997;52.112;5.420;2022-12-22T11:16:13;100737.97;;;8.62;93.17
75418;BME280;63997;52.112;5.420;2022-12-22T11:21:55;100740.66;;;8.71;93.24
75418;BME280;63997;52.112;5.420;2022-12-22T11:24:41;100744.56;;;8.73;93.32
75418;BME280;63997;52.112;5.420;2022-12-22T11:27:25;100753.16;;;8.79;93.02
75418;BME280;63997;52.112;5.420;2022-12-22T11:35:29;100751.75;;;8.82;92.49
75418;BME280;63997;52.112;5.420;2022-12-22T11:38:21;100752.84;;;8.81;92.36
75418;BME280;63997;52.112;5.420;2022-12-22T11:41:01;100756.44;;;8.85;92.50
75418;BME280;63997;52.112;5.420;2022-12-22T11:52:06;100746.63;;;9.02;92.70
75418;BME280;63997;52.112;5.420;2022-12-22T11:57:38;100736.50;;;9.13;92.73
75418;BME280;63997;52.112;5.420;2022-12-22T12:00:08;100731.38;;;9.17;92.43
75418;BME280;63997;52.112;5.420;2022-12-22T12:11:35;100735.59;;;9.44;92.33
75418;BME280;63997;52.112;5.420;2022-12-22T12:16:57;100744.00;;;9.46;91.36
75418;BME280;63997;52.112;5.420;2022-12-22T12:19:32;100746.06;;;9.32;90.80
75418;BME280;63997;52.112;5.420;2022-12-22T12:22:03;100741.66;;;9.18;90.11
75418;BME280;63997;52.112;5.420;2022-12-22T12:24:55;100738.38;;;9.13;90.38
75418;BME280;63997;52.112;5.420;2022-12-22T12:33:02;100739.50;;;9.20;90.78
75418;BME280;63997;52.112;5.420;2022-12-22T12:38:22;100744.94;;;9.07;90.66
75418;BME280;63997;52.112;5.420;2022-12-22T12:41:40;100754.91;;;8.92;89.98
75418;BME280;63997;52.112;5.420;2022-12-22T12:44:14;100746.25;;;8.69;89.50
75418;BME280;63997;52.112;5.420;2022-12-22T12:52:09;100731.94;;;8.31;90.02
75418;BME280;63997;52.112;5.420;2022-12-22T12:54:42;100735.94;;;8.19;89.94
75418;BME280;63997;52.112;5.420;2022-12-22T12:57:25;100727.03;;;8.15;90.39
75418;BME280;63997;52.112;5.420;2022-12-22T12:59:54;100741.38;;;8.14;90.38
75418;BME280;63997;52.112;5.420;2022-12-22T13:05:09;100751.72;;;8.02;90.70
75418;BME280;63997;52.112;5.420;2022-12-22T13:08:11;100750.00;;;7.98;90.64
75418;BME280;63997;52.112;5.420;2022-12-22T13:15:48;100754.78;;;7.64;90.57
75418;BME280;63997;52.112;5.420;2022-12-22T13:20:59;100759.22;;;7.55;91.15
75418;BME280;63997;52.112;5.420;2022-12-22T13:23:54;100768.25;;;7.54;91.34
75418;BME280;63997;52.112;5.420;2022-12-22T13:26:43;100774.31;;;7.55;91.27
75418;BME280;63997;52.112;5.420;2022-12-22T13:31:42;100774.75;;;7.48;91.55
75418;BME280;63997;52.112;5.420;2022-12-22T13:34:30;100783.56;;;7.43;91.61
75418;BME280;63997;52.112;5.420;2022-12-22T13:37:11;100768.78;;;7.42;91.69
75418;BME280;63997;52.112;5.420;2022-12-22T13:39:39;100762.19;;;7.40;91.88
75418;BME280;63997;52.112;5.420;2022-12-22T13:42:05;100758.19;;;7.42;91.96
75418;BME280;63997;52.112;5.420;2022-12-22T13:44:37;100751.03;;;7.43;92.06
75418;BME280;63997;52.112;5.420;2022-12-22T13:47:06;100745.75;;;7.43;92.18
75418;BME280;63997;52.112;5.420;2022-12-22T13:49:38;100745.28;;;7.41;92.17
75418;BME280;63997;52.112;5.420;2022-12-22T13:52:26;100732.81;;;7.41;92.18
75418;BME280;63997;52.112;5.420;2022-12-22T13:54:54;100736.25;;;7.42;92.12
75418;BME280;63997;52.112;5.420;2022-12-22T13:57:22;100736.72;;;7.44;92.06
75418;BME280;63997;52.112;5.420;2022-12-22T13:59:51;100731.13;;;7.46;92.08
75418;BME280;63997;52.112;5.420;2022-12-22T14:02:19;100728.47;;;7.46;92.23
75418;BME280;63997;52.112;5.420;2022-12-22T14:05:08;100723.38;;;7.49;92.27
75418;BME280;63997;52.112;5.420;2022-12-22T14:07:36;100719.63;;;7.50;92.13
75418;BME280;63997;52.112;5.420;2022-12-22T14:10:04;100717.63;;;7.47;92.17
75418;BME280;63997;52.112;5.420;2022-12-22T14:12:38;100707.31;;;7.46;92.10
75418;BME280;63997;52.112;5.420;2022-12-22T14:15:13;100706.25;;;7.47;92.17
75418;BME280;63997;52.112;5.420;2022-12-22T14:17:43;100703.59;;;7.47;92.13
75418;BME280;63997;52.112;5.420;2022-12-22T14:20:25;100702.00;;;7.46;92.23
75418;BME280;63997;52.112;5.420;2022-12-22T14:23:01;100700.75;;;7.43;92.30
75418;BME280;63997;52.112;5.420;2022-12-22T14:25:33;100701.06;;;7.41;92.38
75418;BME280;63997;52.112;5.420;2022-12-22T14:28:26;100697.66;;;7.41;92.57
75418;BME280;63997;52.112;5.420;2022-12-22T14:30:55;100701.84;;;7.42;92.51
75418;BME280;63997;52.112;5.420;2022-12-22T14:35:49;100693.13;;;7.41;92.79
75418;BME280;63997;52.112;5.420;2022-12-22T14:38:22;100689.72;;;7.41;92.80
75418;BME280;63997;52.112;5.420;2022-12-22T14:40:50;100689.72;;;7.41;92.83
75418;BME280;63997;52.112;5.420;2022-12-22T14:43:26;100684.41;;;7.41;92.84
75418;BME280;63997;52.112;5.420;2022-12-22T14:46:03;100680.69;;;7.42;92.95
75418;BME280;63997;52.112;5.420;2022-12-22T14:48:34;100678.03;;;7.42;93.03
75418;BME280;63997;52.112;5.420;2022-12-22T14:51:01;100676.97;;;7.43;92.92
75418;BME280;63997;52.112;5.420;2022-12-22T14:53:50;100677.72;;;7.43;93.00
75418;BME280;63997;52.112;5.420;2022-12-22T14:56:18;100670.56;;;7.44;93.14
75418;BME280;63997;52.112;5.420;2022-12-22T14:58:46;100669.50;;;7.45;92.89
75418;BME280;63997;52.112;5.420;2022-12-22T15:06:38;100661.28;;;7.47;93.43